Time;durP1;ratioP1;P1;durP2;ratioP2;P2;SDS_P1;SDS_P2;PMS_P1;PMS_P2;Temp;Humidity;BMP_temperature;BMP_pressure;BME280_temperature;BME280_humidity;BME280_pressure;Samples;Min_cycle;Max_cycle;Signal;HPM_P1;HPM_P2
2023/03/10 00:01:17;;;;;;;17.67;8.20;;;1.60;99.90;;;;;;4992072;28;20050;-50
2023/03/10 00:03:44;;;;;;;16.48;8.00;;;1.50;99.90;;;;;;4991899;28;20213;-51
2023/03/10 00:06:12;;;;;;;9.50;5.45;;;1.50;99.90;;;;;;4992111;28;20018;-49
2023/03/10 00:08:38;;;;;;;15.77;5.70;;;1.50;99.90;;;;;;4991846;28;20053;-50
2023/03/10 00:11:03;;;;;;;14.57;5.38;;;1.50;99.90;;;;;;4990583;28;20022;-50
2023/03/10 00:13:29;;;;;;;10.00;6.68;;;1.50;99.90;;;;;;4991788;28;20076;-52
2023/03/10 00:15:55;;;;;;;10.90;6.65;;;1.50;99.90;;;;;;4991940;28;20118;-54
2023/03/10 00:18:20;;;;;;;9.63;5.68;;;1.50;99.90;;;;;;4991951;28;20057;-50
2023/03/10 00:20:50;;;;;;;8.77;5.60;;;1.40;99.90;;;;;;4991803;28;20033;-50
2023/03/10 00:23:15;;;;;;;27.38;14.02;;;1.40;99.90;;;;;;4990531;28;20018;-52
2023/03/10 00:25:41;;;;;;;23.58;12.95;;;1.40;99.90;;;;;;4991609;28;20477;-50
2023/03/10 00:28:06;;;;;;;21.88;10.80;;;1.40;99.90;;;;;;4991830;28;20266;-49
2023/03/10 00:30:34;;;;;;;33.55;18.45;;;1.30;99.90;;;;;;4991726;28;20109;-50
2023/03/10 00:33:00;;;;;;;31.60;14.18;;;1.40;99.90;;;;;;4991842;28;20038;-51
2023/03/10 00:35:26;;;;;;;19.55;9.93;;;1.40;99.90;;;;;;4991603;28;20458;-53
2023/03/10 00:37:52;;;;;;;18.02;8.88;;;1.30;99.90;;;;;;4991604;28;20073;-53
2023/03/10 00:40:18;;;;;;;20.65;10.40;;;1.30;99.90;;;;;;4991429;28;20023;-53
2023/03/10 00:42:44;;;;;;;14.70;8.68;;;1.30;99.90;;;;;;4990790;28;20080;-51
2023/03/10 00:45:10;;;;;;;15.52;8.80;;;1.30;99.90;;;;;;4995192;28;20022;-50
2023/03/10 00:47:35;;;;;;;15.43;9.27;;;1.20;99.90;;;;;;4995027;28;20033;-52
2023/03/10 00:50:01;;;;;;;10.70;6.90;;;1.20;99.90;;;;;;4995136;28;20045;-50
2023/03/10 00:52:31;;;;;;;13.95;7.10;;;1.10;99.90;;;;;;4994866;28;20032;-52
2023/03/10 00:54:57;;;;;;;12.13;6.47;;;1.10;99.90;;;;;;4995019;28;20026;-53
2023/03/10 00:57:22;;;;;;;11.38;6.18;;;1.10;99.90;;;;;;4994944;28;20052;-56
2023/03/10 00:59:51;;;;;;;14.27;6.22;;;1.20;99.90;;;;;;4994944;28;20033;-54
2023/03/10 01:02:18;;;;;;;9.73;6.68;;;1.10;99.90;;;;;;4994977;28;20057;-50
2023/03/10 01:04:44;;;;;;;11.85;6.47;;;1.10;99.90;;;;;;4994752;28;20046;-52
2023/03/10 01:07:10;;;;;;;9.55;6.22;;;1.10;99.90;;;;;;4994705;28;20061;-54
2023/03/10 01:09:36;;;;;;;15.68;8.98;;;1.00;99.90;;;;;;4994802;28;20061;-53
2023/03/10 01:12:01;;;;;;;24.02;11.75;;;1.00;99.90;;;;;;4994712;28;20500;-53
2023/03/10 01:14:27;;;;;;;13.15;7.03;;;1.00;99.90;;;;;;4994743;28;20038;-52
2023/03/10 01:16:53;;;;;;;16.30;7.60;;;0.90;99.90;;;;;;4994635;28;20046;-49
2023/03/10 01:19:18;;;;;;;11.75;7.60;;;0.90;99.90;;;;;;4994685;28;20084;-50
2023/03/10 01:21:44;;;;;;;13.65;7.65;;;1.00;99.90;;;;;;4994456;28;20034;-53
2023/03/10 01:24:14;;;;;;;16.45;8.13;;;1.00;99.90;;;;;;4994503;28;20022;-52
2023/03/10 01:26:40;;;;;;;14.40;7.95;;;0.90;99.90;;;;;;4992864;28;20042;-53
2023/03/10 01:29:05;;;;;;;13.20;8.27;;;1.00;99.90;;;;;;4994488;28;20473;-52
2023/03/10 01:31:31;;;;;;;13.35;7.45;;;0.90;99.90;;;;;;4992938;28;20029;-55
2023/03/10 01:33:57;;;;;;;11.95;6.85;;;0.90;99.90;;;;;;4993003;28;20145;-52
2023/03/10 01:36:25;;;;;;;15.45;6.47;;;0.80;99.90;;;;;;4994371;28;20065;-51
2023/03/10 01:38:53;;;;;;;7.80;4.90;;;0.80;99.90;;;;;;4994493;28;20500;-53
2023/03/10 01:41:20;;;;;;;9.30;5.05;;;0.90;99.90;;;;;;4994139;28;20026;-53
2023/03/10 01:43:49;;;;;;;17.33;6.75;;;0.80;99.90;;;;;;4994007;28;20351;-53
2023/03/10 01:46:23;;;;;;;7.40;6.07;;;0.80;99.90;;;;;;4994072;28;20025;-51
2023/03/10 01:48:49;;;;;;;13.70;6.65;;;0.70;99.90;;;;;;4993978;28;20050;-53
2023/03/10 01:51:15;;;;;;;14.27;6.15;;;0.60;99.90;;;;;;4994091;28;20558;-51
2023/03/10 01:53:41;;;;;;;9.57;5.47;;;0.60;99.90;;;;;;4993342;28;20049;-50
2023/03/10 01:56:07;;;;;;;13.20;7.22;;;0.60;99.90;;;;;;4992542;28;20038;-52
2023/03/10 01:58:39;;;;;;;17.50;6.03;;;0.60;99.90;;;;;;4993578;28;20034;-53
2023/03/10 02:01:05;;;;;;;11.15;6.05;;;0.70;99.90;;;;;;4992564;28;20381;-50
2023/03/10 02:03:46;;;;;;;13.70;6.63;;;0.60;99.90;;;;;;4993512;28;20030;-54
2023/03/10 02:06:15;;;;;;;12.60;5.82;;;0.60;99.90;;;;;;4993869;28;20026;-53
2023/03/10 02:08:46;;;;;;;11.80;6.43;;;0.60;99.90;;;;;;4993355;28;20150;-52
2023/03/10 02:11:16;;;;;;;11.90;5.50;;;0.60;99.90;;;;;;4993679;28;20149;-50
2023/03/10 02:13:42;;;;;;;9.10;5.70;;;0.60;99.90;;;;;;4993137;28;20081;-53
2023/03/10 02:16:08;;;;;;;13.77;5.30;;;0.60;99.90;;;;;;4993439;28;20062;-50
2023/03/10 02:18:33;;;;;;;7.75;5.45;;;0.60;99.90;;;;;;4993219;28;20394;-56
2023/03/10 02:21:11;;;;;;;11.75;5.93;;;0.60;99.90;;;;;;4991960;28;20022;-51
2023/03/10 02:23:42;;;;;;;7.30;4.78;;;0.50;99.90;;;;;;4993125;28;20023;-52
2023/03/10 02:26:21;;;;;;;14.00;5.72;;;0.50;99.90;;;;;;4993186;28;20057;-50
2023/03/10 02:28:49;;;;;;;9.07;5.65;;;0.50;99.90;;;;;;4992825;28;20038;-53
2023/03/10 02:31:15;;;;;;;19.27;5.28;;;0.40;99.90;;;;;;4992572;28;20389;-51
2023/03/10 02:33:43;;;;;;;9.85;6.57;;;0.40;99.90;;;;;;4992731;28;20026;-51
2023/03/10 02:36:21;;;;;;;7.38;4.85;;;0.40;99.90;;;;;;4992381;28;20113;-52
2023/03/10 02:38:46;;;;;;;11.30;4.88;;;0.40;99.90;;;;;;4992806;28;20432;-55
2023/03/10 02:41:31;;;;;;;9.15;4.82;;;0.40;99.90;;;;;;4992060;28;20030;-53
2023/03/10 02:43:58;;;;;;;10.68;4.25;;;0.40;99.90;;;;;;4992200;28;20030;-54
2023/03/10 02:46:25;;;;;;;8.55;4.95;;;0.40;99.90;;;;;;4992008;28;20022;-52
2023/03/10 02:48:50;;;;;;;8.02;5.03;;;0.40;99.90;;;;;;4992331;28;20373;-53
2023/03/10 02:51:25;;;;;;;11.30;4.63;;;0.40;99.90;;;;;;4992541;28;20031;-49
2023/03/10 02:53:50;;;;;;;10.13;4.15;;;0.40;99.90;;;;;;4991492;28;20128;-54
2023/03/10 02:56:16;;;;;;;8.52;4.50;;;0.40;99.90;;;;;;4992746;28;20136;-52
2023/03/10 02:58:42;;;;;;;8.55;4.85;;;0.40;99.90;;;;;;4992561;28;20038;-51
2023/03/10 03:01:07;;;;;;;6.63;4.65;;;0.50;99.90;;;;;;4992679;28;20026;-53
2023/03/10 03:03:33;;;;;;;9.48;3.78;;;0.40;99.90;;;;;;4992555;28;20026;-52
2023/03/10 03:05:59;;;;;;;8.02;4.82;;;0.40;99.90;;;;;;4991908;28;20026;-52
2023/03/10 03:08:25;;;;;;;6.40;4.40;;;0.40;99.90;;;;;;4992617;28;20080;-51
2023/03/10 03:10:51;;;;;;;7.03;4.28;;;0.40;99.90;;;;;;4991401;28;20026;-53
2023/03/10 03:13:17;;;;;;;6.10;4.18;;;0.40;99.90;;;;;;4992627;28;20065;-54
2023/03/10 03:15:42;;;;;;;7.18;4.93;;;0.40;99.90;;;;;;4992326;28;20684;-52
2023/03/10 03:18:08;;;;;;;7.93;4.47;;;0.40;99.90;;;;;;4992450;28;20023;-49
2023/03/10 03:20:35;;;;;;;9.85;5.00;;;0.40;99.90;;;;;;4992242;28;20026;-50
2023/03/10 03:23:02;;;;;;;9.60;3.90;;;0.30;99.90;;;;;;4992392;28;20019;-50
2023/03/10 03:25:29;;;;;;;7.25;4.55;;;0.40;99.90;;;;;;4992387;28;20520;-52
2023/03/10 03:27:56;;;;;;;6.20;4.03;;;0.30;99.90;;;;;;4990947;28;20156;-55
2023/03/10 03:30:24;;;;;;;10.48;3.95;;;0.20;99.90;;;;;;4992424;28;20494;-53
2023/03/10 03:32:51;;;;;;;4.18;3.78;;;0.30;99.90;;;;;;4992270;28;20052;-50
2023/03/10 03:35:19;;;;;;;8.30;3.63;;;0.20;99.90;;;;;;4992201;28;20018;-52
2023/03/10 03:37:45;;;;;;;8.95;4.88;;;0.30;99.90;;;;;;4992009;28;20064;-49
2023/03/10 03:40:12;;;;;;;7.68;3.58;;;0.30;99.90;;;;;;4992217;28;20472;-52
2023/03/10 03:42:43;;;;;;;5.35;3.80;;;0.30;99.90;;;;;;4992121;28;20092;-49
2023/03/10 03:45:10;;;;;;;5.80;3.90;;;0.30;99.90;;;;;;4992218;28;20397;-52
2023/03/10 03:47:36;;;;;;;4.60;3.90;;;0.30;99.90;;;;;;4991978;28;20496;-50
2023/03/10 03:50:03;;;;;;;9.68;4.50;;;0.30;99.90;;;;;;4991956;28;20035;-51
2023/03/10 03:52:29;;;;;;;8.20;4.05;;;0.30;99.90;;;;;;4991490;28;20113;-52
2023/03/10 03:54:54;;;;;;;6.68;3.80;;;0.20;99.90;;;;;;4991920;28;20102;-50
2023/03/10 03:57:21;;;;;;;6.30;4.57;;;0.10;99.90;;;;;;4992001;28;20068;-54
2023/03/10 03:59:46;;;;;;;4.80;3.30;;;0.10;99.90;;;;;;4990673;28;20117;-50
2023/03/10 04:02:12;;;;;;;4.88;3.55;;;0.10;99.90;;;;;;4990738;28;20114;-51
2023/03/10 04:04:38;;;;;;;6.00;3.83;;;0.20;99.90;;;;;;4991789;28;20033;-53
2023/03/10 04:07:03;;;;;;;6.40;4.07;;;0.20;99.90;;;;;;4992136;28;20026;-50
2023/03/10 04:09:29;;;;;;;13.73;3.92;;;0.10;99.90;;;;;;4991736;28;20110;-54
2023/03/10 04:11:55;;;;;;;7.20;3.70;;;0.10;99.90;;;;;;4991889;28;20023;-54
2023/03/10 04:14:20;;;;;;;8.18;4.13;;;0.10;99.90;;;;;;4991899;28;20185;-50
2023/03/10 04:16:46;;;;;;;15.80;4.47;;;0.10;99.90;;;;;;4992252;28;20037;-53
2023/03/10 04:19:12;;;;;;;15.75;4.10;;;0.10;99.90;;;;;;4995537;28;20027;-52
2023/03/10 04:21:37;;;;;;;13.68;3.83;;;0.00;99.90;;;;;;4995410;28;20049;-51
2023/03/10 04:24:04;;;;;;;5.10;3.92;;;0.00;99.90;;;;;;4995756;28;20034;-53
2023/03/10 04:26:30;;;;;;;4.70;3.60;;;0.00;99.90;;;;;;4995218;28;20611;-50
2023/03/10 04:28:57;;;;;;;5.80;4.00;;;0.00;99.90;;;;;;4995520;28;20092;-52
2023/03/10 04:31:23;;;;;;;9.25;4.10;;;0.00;99.90;;;;;;4995391;28;20030;-50
2023/03/10 04:33:48;;;;;;;6.53;4.35;;;-0.10;99.90;;;;;;4995152;28;20034;-50
2023/03/10 04:36:15;;;;;;;6.35;3.97;;;-0.10;99.90;;;;;;4995443;28;20457;-50
2023/03/10 04:38:40;;;;;;;6.60;4.50;;;-0.10;99.90;;;;;;4995049;28;20034;-51
2023/03/10 04:41:08;;;;;;;3.70;3.40;;;0.00;99.90;;;;;;4995248;28;20026;-51
2023/03/10 04:43:34;;;;;;;5.07;3.38;;;0.00;99.90;;;;;;4994960;28;20026;-55
2023/03/10 04:46:00;;;;;;;6.85;3.55;;;0.00;99.90;;;;;;4993804;28;20642;-53
2023/03/10 04:48:26;;;;;;;5.40;4.20;;;0.10;99.90;;;;;;4995134;28;20089;-52
2023/03/10 04:51:05;;;;;;;7.53;4.82;;;0.10;99.90;;;;;;4995330;28;20050;-55
2023/03/10 04:53:31;;;;;;;6.90;3.47;;;0.10;99.90;;;;;;4994931;28;20039;-50
2023/03/10 04:55:58;;;;;;;5.07;3.97;;;0.10;99.90;;;;;;4995016;28;20022;-54
2023/03/10 04:58:24;;;;;;;7.10;3.60;;;0.10;99.90;;;;;;4994696;28;20473;-55
2023/03/10 05:00:50;;;;;;;3.78;3.47;;;0.10;99.90;;;;;;4994849;28;20040;-52
2023/03/10 05:03:16;;;;;;;11.30;6.50;;;0.10;99.90;;;;;;4994920;28;20066;-51
2023/03/10 05:05:41;;;;;;;8.05;3.65;;;0.00;99.90;;;;;;4994642;28;20373;-52
2023/03/10 05:08:07;;;;;;;7.18;3.22;;;-0.10;99.90;;;;;;4994811;28;20030;-50
2023/03/10 05:10:33;;;;;;;9.45;3.80;;;-0.10;99.90;;;;;;4994593;28;20023;-52
2023/03/10 05:12:59;;;;;;;10.45;5.40;;;-0.10;99.90;;;;;;4994666;28;20081;-53
2023/03/10 05:15:24;;;;;;;7.03;3.95;;;0.00;99.90;;;;;;4994554;28;20033;-57
2023/03/10 05:17:50;;;;;;;4.38;3.72;;;0.00;99.90;;;;;;4994929;28;20034;-53
2023/03/10 05:20:16;;;;;;;13.80;3.83;;;-0.10;99.90;;;;;;4994424;28;20105;-53
2023/03/10 05:22:42;;;;;;;13.90;4.40;;;-0.10;99.90;;;;;;4994268;28;20034;-51
2023/03/10 05:25:09;;;;;;;10.13;3.90;;;-0.10;99.90;;;;;;4994498;28;20027;-50
2023/03/10 05:27:36;;;;;;;5.22;3.70;;;-0.10;99.90;;;;;;4993968;28;20035;-54
2023/03/10 05:30:04;;;;;;;5.60;3.90;;;0.00;99.90;;;;;;4993605;28;20026;-50
2023/03/10 05:32:32;;;;;;;5.45;3.60;;;-0.10;99.90;;;;;;4994189;28;20018;-52
2023/03/10 05:34:58;;;;;;;11.93;4.05;;;-0.10;99.90;;;;;;4994314;28;20027;-56
2023/03/10 05:37:23;;;;;;;4.38;3.97;;;-0.10;99.90;;;;;;4994041;28;20089;-55
2023/03/10 05:39:49;;;;;;;7.68;4.13;;;0.00;99.90;;;;;;4994180;28;20022;-53
2023/03/10 05:42:15;;;;;;;16.50;3.95;;;0.00;99.90;;;;;;4993971;28;20400;-52
2023/03/10 05:44:41;;;;;;;12.55;3.53;;;0.10;99.90;;;;;;4993926;28;20029;-49
2023/03/10 05:47:06;;;;;;;4.05;3.45;;;0.20;99.90;;;;;;4993991;28;20015;-54
2023/03/10 05:49:32;;;;;;;4.22;3.80;;;0.30;99.90;;;;;;4993855;28;20473;-52
2023/03/10 05:51:58;;;;;;;5.25;3.65;;;0.30;99.90;;;;;;4993809;28;20027;-52
2023/03/10 05:54:24;;;;;;;16.48;4.03;;;0.40;99.90;;;;;;4993882;28;20114;-53
2023/03/10 05:56:50;;;;;;;8.45;4.05;;;0.50;99.90;;;;;;4993652;28;20101;-51
2023/03/10 05:59:16;;;;;;;4.25;3.58;;;0.60;99.90;;;;;;4993524;28;20022;-51
2023/03/10 06:01:42;;;;;;;6.90;3.92;;;0.70;99.90;;;;;;4989998;28;20022;-54
2023/03/10 06:04:07;;;;;;;6.70;4.00;;;0.80;99.90;;;;;;4992869;28;20105;-52
2023/03/10 06:06:34;;;;;;;7.00;4.38;;;0.90;99.90;;;;;;4992988;28;20057;-52
2023/03/10 06:09:00;;;;;;;12.07;6.22;;;0.90;99.90;;;;;;4993685;28;20434;-53
2023/03/10 06:11:26;;;;;;;6.28;3.88;;;0.90;99.90;;;;;;4992696;28;20022;-52
2023/03/10 06:13:52;;;;;;;3.60;3.30;;;1.10;99.90;;;;;;4992029;28;20034;-52
2023/03/10 06:16:17;;;;;;;7.82;4.18;;;1.30;99.90;;;;;;4993543;28;20033;-52
2023/03/10 06:18:43;;;;;;;15.15;4.93;;;1.40;99.90;;;;;;4991361;28;20022;-56
2023/03/10 06:21:12;;;;;;;8.95;4.43;;;1.40;99.90;;;;;;4993096;28;20110;-54
2023/03/10 06:23:38;;;;;;;16.60;4.43;;;1.50;99.90;;;;;;4990503;28;20385;-54
2023/03/10 06:26:07;;;;;;;11.27;4.45;;;1.60;99.90;;;;;;4975254;28;20050;-53
2023/03/10 06:28:36;;;;;;;11.55;4.32;;;1.70;99.90;;;;;;4981301;28;20039;-51
2023/03/10 06:31:05;;;;;;;7.60;4.90;;;1.80;99.90;;;;;;4973617;28;20035;-57
2023/03/10 06:33:31;;;;;;;9.40;4.97;;;1.90;99.90;;;;;;4973187;28;20596;-53
2023/03/10 06:35:57;;;;;;;9.45;4.40;;;2.00;99.90;;;;;;4978915;28;20109;-57
2023/03/10 06:38:23;;;;;;;5.78;4.10;;;2.10;99.90;;;;;;4981557;28;20033;-52
2023/03/10 06:40:49;;;;;;;10.00;4.05;;;2.30;99.90;;;;;;4972453;28;20086;-54
2023/03/10 06:43:15;;;;;;;11.70;3.80;;;2.30;99.90;;;;;;4973102;28;20725;-57
2023/03/10 06:45:44;;;;;;;15.98;4.18;;;2.50;99.90;;;;;;4973120;28;20355;-56
2023/03/10 06:48:11;;;;;;;6.10;4.05;;;2.60;99.90;;;;;;4981018;28;20052;-55
2023/03/10 06:50:43;;;;;;;14.80;5.72;;;2.80;99.90;;;;;;4973256;28;20027;-57
2023/03/10 06:53:10;;;;;;;21.77;13.40;;;3.10;99.90;;;;;;4984622;28;20038;-55
2023/03/10 06:55:36;;;;;;;22.17;12.77;;;3.30;99.90;;;;;;4979984;28;20015;-54
2023/03/10 06:58:02;;;;;;;93.75;61.17;;;3.30;99.90;;;;;;4980380;28;20468;-56
2023/03/10 07:00:28;;;;;;;16.00;10.73;;;3.50;99.90;;;;;;4987518;28;20019;-56
2023/03/10 07:02:53;;;;;;;12.35;6.60;;;3.70;99.90;;;;;;4985335;28;20125;-52
2023/03/10 07:05:21;;;;;;;6.13;4.80;;;3.90;99.90;;;;;;4992554;28;20043;-50
2023/03/10 07:07:49;;;;;;;5.80;4.63;;;4.00;99.90;;;;;;4978089;28;20058;-55
2023/03/10 07:10:16;;;;;;;5.28;4.60;;;3.90;99.90;;;;;;4978755;28;20030;-51
2023/03/10 07:12:43;;;;;;;14.05;4.30;;;4.00;99.90;;;;;;4995198;28;20045;-57
2023/03/10 07:15:09;;;;;;;5.00;4.18;;;4.20;99.90;;;;;;4996360;28;20026;-53
2023/03/10 07:17:35;;;;;;;9.90;3.90;;;4.40;99.90;;;;;;4988117;28;20105;-58
2023/03/10 07:20:01;;;;;;;4.53;3.28;;;4.30;99.90;;;;;;4992259;28;20129;-55
2023/03/10 07:22:26;;;;;;;8.40;4.82;;;4.40;99.90;;;;;;4992075;28;20057;-56
2023/03/10 07:24:55;;;;;;;5.85;3.47;;;4.60;99.90;;;;;;4992470;28;20362;-55
2023/03/10 07:27:22;;;;;;;6.32;3.75;;;4.80;99.90;;;;;;4991615;28;20050;-54
2023/03/10 07:29:48;;;;;;;88.70;38.63;;;4.90;99.90;;;;;;4991884;28;20041;-52
2023/03/10 07:32:15;;;;;;;8.52;4.32;;;4.90;99.90;;;;;;4992205;28;20019;-55
2023/03/10 07:34:41;;;;;;;6.47;3.70;;;5.20;99.90;;;;;;4992077;28;20054;-52
2023/03/10 07:37:08;;;;;;;10.25;3.42;;;5.40;99.90;;;;;;4991807;28;20430;-53
2023/03/10 07:39:34;;;;;;;34.70;13.43;;;5.50;99.90;;;;;;4990673;28;20045;-56
2023/03/10 07:41:59;;;;;;;9.48;3.67;;;5.80;99.90;;;;;;4990752;28;20105;-53
2023/03/10 07:44:25;;;;;;;11.70;5.50;;;6.20;99.90;;;;;;4991520;28;20023;-56
2023/03/10 07:46:51;;;;;;;2.63;2.40;;;6.50;99.90;;;;;;4991514;28;20109;-51
2023/03/10 07:49:16;;;;;;;5.25;2.70;;;6.90;99.90;;;;;;4992180;28;20166;-52
2023/03/10 07:51:42;;;;;;;6.10;3.63;;;7.10;99.90;;;;;;4992463;28;20469;-52
2023/03/10 07:54:10;;;;;;;8.23;3.63;;;7.30;99.90;;;;;;4995996;28;20029;-50
2023/03/10 07:56:36;;;;;;;10.65;4.15;;;7.40;99.90;;;;;;4995749;28;20042;-51
2023/03/10 07:59:02;;;;;;;9.32;4.90;;;7.40;99.90;;;;;;4995836;28;20027;-51
2023/03/10 08:01:27;;;;;;;25.52;14.13;;;7.30;99.90;;;;;;4995643;28;20058;-52
2023/03/10 08:03:53;;;;;;;4.18;3.53;;;7.20;99.90;;;;;;4993996;28;20022;-52
2023/03/10 08:06:22;;;;;;;7.07;4.10;;;7.30;99.90;;;;;;4995767;28;20802;-52
2023/03/10 08:08:48;;;;;;;9.93;4.93;;;7.30;99.90;;;;;;4995532;28;20034;-52
2023/03/10 08:11:14;;;;;;;12.73;7.25;;;7.30;99.90;;;;;;4995486;28;20597;-57
2023/03/10 08:13:39;;;;;;;6.00;3.70;;;7.30;99.90;;;;;;4995505;28;20030;-57
2023/03/10 08:16:06;;;;;;;5.53;3.53;;;7.30;99.90;;;;;;4995500;28;20422;-53
2023/03/10 08:18:32;;;;;;;5.20;3.22;;;7.40;99.90;;;;;;4995586;28;20099;-55
2023/03/10 08:20:58;;;;;;;4.25;3.20;;;7.30;99.90;;;;;;4994912;28;20027;-57
2023/03/10 08:23:24;;;;;;;5.40;3.00;;;7.40;99.90;;;;;;4995575;28;20026;-57
2023/03/10 08:25:50;;;;;;;4.35;2.72;;;7.50;99.90;;;;;;4995252;28;20023;-51
2023/03/10 08:28:16;;;;;;;4.15;2.83;;;7.40;99.90;;;;;;4994138;28;20500;-54
2023/03/10 08:30:42;;;;;;;3.83;2.40;;;7.40;99.90;;;;;;4995202;28;20084;-52
2023/03/10 08:33:08;;;;;;;7.53;2.53;;;7.50;99.90;;;;;;4995310;28;20418;-54
2023/03/10 08:35:35;;;;;;;6.55;2.90;;;7.50;99.90;;;;;;4995258;28;20030;-56
2023/03/10 08:38:01;;;;;;;5.03;3.17;;;7.50;99.90;;;;;;4994572;28;20716;-50
2023/03/10 08:40:27;;;;;;;9.90;3.35;;;7.60;99.90;;;;;;4995081;28;20041;-53
2023/03/10 08:42:53;;;;;;;6.90;3.20;;;7.70;99.90;;;;;;4995223;28;20022;-53
2023/03/10 08:45:19;;;;;;;4.28;3.40;;;7.80;99.90;;;;;;4994922;28;20080;-52
2023/03/10 08:47:44;;;;;;;4.03;3.55;;;8.00;99.90;;;;;;4994813;28;20018;-50
2023/03/10 08:50:11;;;;;;;10.18;4.53;;;8.20;99.90;;;;;;4994991;28;20057;-55
2023/03/10 08:52:38;;;;;;;4.28;3.10;;;8.30;99.90;;;;;;4994925;28;20034;-53
2023/03/10 08:55:04;;;;;;;9.82;3.28;;;8.40;99.90;;;;;;4994357;28;20026;-50
2023/03/10 08:57:31;;;;;;;4.97;3.63;;;8.40;99.90;;;;;;4993381;28;20035;-56
2023/03/10 08:59:56;;;;;;;5.93;2.78;;;8.30;99.90;;;;;;4994769;28;20062;-50
2023/03/10 09:02:22;;;;;;;6.18;3.10;;;8.40;99.90;;;;;;4994921;28;20050;-50
2023/03/10 09:04:49;;;;;;;8.90;3.20;;;8.50;99.90;;;;;;4993718;28;20149;-52
2023/03/10 09:07:15;;;;;;;15.95;5.95;;;8.60;99.90;;;;;;4994574;28;20029;-52
2023/03/10 09:09:41;;;;;;;5.70;4.30;;;8.60;99.90;;;;;;4994483;28;20521;-51
2023/03/10 09:12:08;;;;;;;11.32;6.95;;;8.60;99.90;;;;;;4992705;28;20034;-52
2023/03/10 09:14:34;;;;;;;14.82;6.72;;;8.70;99.90;;;;;;4993835;28;20021;-56
2023/03/10 09:17:00;;;;;;;13.75;6.68;;;8.60;99.90;;;;;;4997052;28;20457;-58
2023/03/10 09:19:26;;;;;;;12.82;4.40;;;8.70;99.90;;;;;;4995140;28;20027;-55
2023/03/10 09:25:13;;;;;;;7.45;3.38;;;8.60;99.90;;;;;;4994286;28;20114;-52
2023/03/10 09:27:39;;;;;;;31.85;11.68;;;8.70;99.90;;;;;;4993869;28;20133;-50
2023/03/10 09:30:06;;;;;;;9.98;4.95;;;8.60;99.90;;;;;;4992573;28;20048;-49
2023/03/10 09:32:31;;;;;;;5.72;2.97;;;8.90;99.90;;;;;;4993629;28;20026;-50
2023/03/10 09:34:57;;;;;;;3.97;2.65;;;9.00;99.90;;;;;;4993790;28;20054;-52
2023/03/10 09:37:22;;;;;;;11.45;3.50;;;9.10;99.90;;;;;;4993956;28;20041;-51
2023/03/10 09:39:48;;;;;;;6.35;3.55;;;9.10;99.90;;;;;;4993911;28;20029;-52
2023/03/10 09:42:40;;;;;;;5.38;2.70;;;9.10;99.90;;;;;;4993994;28;20028;-53
2023/03/10 09:45:18;;;;;;;7.93;3.95;;;9.20;99.90;;;;;;4993393;28;20043;-49
2023/03/10 09:47:54;;;;;;;2.92;2.47;;;9.40;99.90;;;;;;4993256;28;20548;-54
2023/03/10 09:50:33;;;;;;;5.07;2.60;;;9.60;99.90;;;;;;4994609;28;20454;-50
2023/03/10 09:53:23;;;;;;;9.00;4.03;;;9.70;99.90;;;;;;4993516;28;20030;-55
2023/03/10 09:55:49;;;;;;;7.15;2.50;;;9.80;99.90;;;;;;4993551;28;20026;-57
2023/03/10 09:58:21;;;;;;;6.72;2.92;;;9.80;99.90;;;;;;4993017;28;20031;-54
2023/03/10 10:00:48;;;;;;;10.60;4.50;;;10.00;99.90;;;;;;4993590;28;20096;-54
2023/03/10 10:03:27;;;;;;;12.38;3.42;;;10.10;99.90;;;;;;4992836;28;20019;-51
2023/03/10 10:05:54;;;;;;;7.95;3.38;;;10.00;99.90;;;;;;4993707;28;20027;-56
2023/03/10 10:08:31;;;;;;;6.55;3.53;;;10.10;99.90;;;;;;4993483;28;20033;-51
2023/03/10 10:10:59;;;;;;;5.95;4.35;;;10.30;99.90;;;;;;4992990;28;20057;-54
2023/03/10 10:13:29;;;;;;;31.80;13.20;;;10.50;99.90;;;;;;4992776;28;20022;-52
2023/03/10 10:16:13;;;;;;;10.00;5.43;;;10.40;99.90;;;;;;4992877;28;20026;-53
2023/03/10 10:18:42;;;;;;;15.60;9.02;;;10.50;99.90;;;;;;4993021;28;20050;-52
2023/03/10 10:21:12;;;;;;;21.35;9.02;;;10.70;99.90;;;;;;4992420;28;20026;-52
2023/03/10 10:23:43;;;;;;;4.22;3.40;;;10.80;99.90;;;;;;4991417;28;20531;-50
2023/03/10 10:26:15;;;;;;;3.60;2.35;;;10.90;99.90;;;;;;4992474;28;20050;-52
2023/03/10 10:28:49;;;;;;;4.07;3.63;;;11.00;99.90;;;;;;4992851;28;20045;-52
2023/03/10 10:31:19;;;;;;;6.85;3.42;;;11.00;99.50;;;;;;4993063;28;20026;-51
2023/03/10 10:33:52;;;;;;;3.50;2.63;;;10.90;99.40;;;;;;4992589;28;20112;-54
2023/03/10 10:36:18;;;;;;;6.07;2.72;;;11.20;99.20;;;;;;4992416;28;20113;-50
2023/03/10 10:38:53;;;;;;;4.75;2.50;;;11.50;99.60;;;;;;4991284;28;20517;-51
2023/03/10 10:41:23;;;;;;;10.20;2.33;;;11.90;98.00;;;;;;4992503;28;20026;-52
2023/03/10 10:43:49;;;;;;;2.53;2.33;;;12.00;97.00;;;;;;4992272;28;20117;-56
2023/03/10 10:46:24;;;;;;;6.50;2.63;;;12.20;96.70;;;;;;4992684;28;20110;-51
2023/03/10 10:49:02;;;;;;;7.90;2.65;;;12.10;96.40;;;;;;4992364;28;20037;-54
2023/03/10 10:51:32;;;;;;;5.32;2.40;;;12.70;95.40;;;;;;4992574;28;20489;-56
2023/03/10 10:54:03;;;;;;;4.18;2.13;;;12.90;95.00;;;;;;4992486;28;20030;-54
2023/03/10 10:56:29;;;;;;;2.75;2.10;;;13.40;94.40;;;;;;4991819;28;20489;-55
2023/03/10 10:59:17;;;;;;;6.38;2.30;;;13.80;92.90;;;;;;4991587;28;20070;-58
2023/03/10 11:01:56;;;;;;;2.85;1.90;;;14.10;92.70;;;;;;4991710;28;20019;-58
2023/03/10 11:04:24;;;;;;;7.93;3.08;;;14.50;90.50;;;;;;4991968;28;20042;-51
2023/03/10 11:06:51;;;;;;;2.75;1.70;;;14.90;89.80;;;;;;4991747;28;20355;-52
2023/03/10 11:09:19;;;;;;;2.30;1.73;;;15.20;86.40;;;;;;4991892;28;20416;-53
2023/03/10 11:11:54;;;;;;;3.55;1.50;;;15.60;83.90;;;;;;4991699;28;20030;-50
2023/03/10 11:14:54;;;;;;;10.50;2.25;;;16.10;82.40;;;;;;4992107;28;20613;-50
2023/03/10 11:17:26;;;;;;;6.72;2.97;;;16.30;77.20;;;;;;4992121;28;20501;-54
2023/03/10 11:20:11;;;;;;;1.85;1.40;;;16.70;79.80;;;;;;4992033;28;20030;-52
2023/03/10 11:22:37;;;;;;;10.30;2.85;;;17.40;73.50;;;;;;4991757;28;20032;-50
2023/03/10 11:25:31;;;;;;;8.93;2.88;;;17.50;70.40;;;;;;4992246;28;20014;-50
2023/03/10 11:28:17;;;;;;;5.75;2.20;;;16.70;72.30;;;;;;4991514;28;20046;-50
2023/03/10 11:31:04;;;;;;;7.78;4.07;;;17.20;70.90;;;;;;4992139;28;20034;-50
2023/03/10 11:34:13;;;;;;;2.28;1.30;;;16.60;72.40;;;;;;4992252;28;20029;-51
2023/03/10 11:36:53;;;;;;;16.58;5.82;;;16.40;72.40;;;;;;4991944;28;20027;-49
2023/03/10 11:39:33;;;;;;;5.20;2.75;;;15.90;72.80;;;;;;4992214;28;20050;-51
2023/03/10 11:42:13;;;;;;;5.47;2.67;;;16.30;74.70;;;;;;4992272;28;20035;-52
2023/03/10 11:44:54;;;;;;;3.20;2.28;;;15.70;73.60;;;;;;4991393;28;20026;-53
2023/03/10 11:47:37;;;;;;;2.83;2.33;;;15.80;74.00;;;;;;4991907;28;20032;-51
2023/03/10 11:50:26;;;;;;;6.25;2.10;;;15.70;73.30;;;;;;4991942;28;20026;-55
2023/03/10 11:52:58;;;;;;;4.70;1.85;;;16.20;74.20;;;;;;4991753;28;20023;-54
2023/03/10 11:55:24;;;;;;;4.65;2.63;;;17.00;71.40;;;;;;4991920;28;20496;-56
2023/03/10 11:57:56;;;;;;;4.13;1.45;;;18.00;70.20;;;;;;4991835;28;20503;-55
2023/03/10 12:00:38;;;;;;;6.35;1.75;;;18.60;67.60;;;;;;4991909;28;20458;-53
2023/03/10 12:03:16;;;;;;;4.03;2.13;;;20.30;63.70;;;;;;4991672;28;20037;-53
2023/03/10 12:05:50;;;;;;;2.63;1.90;;;20.60;60.10;;;;;;4991860;28;20032;-55
2023/03/10 12:08:19;;;;;;;6.15;2.30;;;20.10;59.20;;;;;;4991904;28;20026;-51
2023/03/10 12:10:45;;;;;;;4.63;2.08;;;19.70;59.30;;;;;;4991608;28;20073;-53
2023/03/10 12:13:25;;;;;;;7.25;1.80;;;19.20;59.40;;;;;;4991744;28;20030;-54
2023/03/10 12:15:55;;;;;;;4.20;2.05;;;19.80;58.90;;;;;;4991377;28;20030;-55
2023/03/10 12:18:21;;;;;;;3.67;1.77;;;20.10;59.10;;;;;;4991810;28;20429;-51
2023/03/10 12:21:06;;;;;;;2.72;1.38;;;19.80;57.30;;;;;;4991832;28;20019;-55
2023/03/10 12:23:49;;;;;;;5.82;1.55;;;19.10;57.50;;;;;;4991495;28;20101;-55
2023/03/10 12:26:37;;;;;;;7.30;1.73;;;19.00;57.50;;;;;;4991830;28;20557;-54
2023/03/10 12:29:21;;;;;;;2.47;1.70;;;18.80;57.50;;;;;;4991501;28;20067;-56
2023/03/10 12:31:48;;;;;;;;;;;18.50;56.80;;;;;;4991933;28;20049;-54
2023/03/10 12:34:21;;;;;;;3.22;1.67;;;19.10;57.80;;;;;;4991632;28;19905;-53
2023/03/10 12:36:49;;;;;;;3.97;1.90;;;18.90;57.90;;;;;;4991728;28;20034;-54
2023/03/10 12:39:27;;;;;;;4.18;1.73;;;18.70;60.50;;;;;;4994332;28;20320;-53
2023/03/10 12:41:58;;;;;;;5.53;2.08;;;18.50;57.60;;;;;;4995234;28;20481;-54
2023/03/10 12:44:29;;;;;;;5.40;2.17;;;17.90;59.10;;;;;;4995273;28;20018;-51
2023/03/10 12:47:18;;;;;;;3.28;1.85;;;17.50;62.20;;;;;;4993645;28;20034;-53
2023/03/10 12:50:15;;;;;;;3.88;1.70;;;16.90;61.50;;;;;;4979840;28;20518;-51
2023/03/10 12:52:43;;;;;;;5.47;1.67;;;16.70;64.10;;;;;;4994827;28;20038;-51
2023/03/10 12:55:28;;;;;;;3.15;1.73;;;16.30;64.80;;;;;;4994932;28;20027;-51
2023/03/10 12:58:22;;;;;;;3.42;2.20;;;15.40;66.00;;;;;;4994903;28;20026;-51
2023/03/10 13:00:49;;;;;;;3.28;1.63;;;14.90;69.30;;;;;;4994613;28;20026;-50
2023/03/10 13:03:18;;;;;;;4.20;2.42;;;14.80;69.20;;;;;;4994799;28;20118;-53